Time;durP1;ratioP1;P1;durP2;ratioP2;P2;SDS_P1;SDS_P2;PMS_P1;PMS_P2;Temp;Humidity;BMP_temperature;BMP_pressure;BME280_temperature;BME280_humidity;BME280_pressure;Samples;Min_cycle;Max_cycle;Signal;HPM_P1;HPM_P2
2022/08/23 00:01:33;;;;;;;16.83;4.82;;;17.00;99.90;;;;;;5013606;28;20430;-70
2022/08/23 00:04:06;;;;;;;13.77;5.18;;;16.90;99.90;;;;;;5013995;28;20034;-70
2022/08/23 00:06:32;;;;;;;7.82;3.80;;;16.90;99.90;;;;;;5013692;28;20038;-70
2022/08/23 00:08:58;;;;;;;19.17;5.45;;;16.90;99.90;;;;;;5013300;28;20101;-70
2022/08/23 00:11:45;;;;;;;12.02;4.45;;;16.90;99.90;;;;;;5013795;28;20072;-70
2022/08/23 00:14:26;;;;;;;9.35;3.70;;;16.90;99.90;;;;;;5013713;28;20033;-70
2022/08/23 00:16:52;;;;;;;22.42;4.88;;;16.90;99.90;;;;;;5013724;28;20454;-70
2022/08/23 00:19:19;;;;;;;18.50;4.10;;;16.90;99.90;;;;;;5013501;28;20026;-70
2022/08/23 00:21:46;;;;;;;17.10;4.63;;;16.90;99.90;;;;;;5013295;28;20025;-70
2022/08/23 00:24:13;;;;;;;18.25;4.18;;;16.90;99.90;;;;;;5013466;28;20030;-70
2022/08/23 00:27:06;;;;;;;15.02;4.45;;;16.90;99.90;;;;;;5012939;28;20080;-69
2022/08/23 00:29:58;;;;;;;11.82;4.63;;;17.00;99.90;;;;;;5013363;28;20105;-70
2022/08/23 00:32:27;;;;;;;14.55;3.63;;;17.00;99.90;;;;;;5012904;28;20045;-70
2022/08/23 00:34:53;;;;;;;18.75;4.55;;;17.10;99.90;;;;;;5013487;28;20508;-70
2022/08/23 00:37:20;;;;;;;15.23;4.55;;;17.10;99.90;;;;;;5013880;28;20030;-70
2022/08/23 00:39:46;;;;;;;15.05;4.50;;;17.20;99.90;;;;;;5013221;28;20014;-70
2022/08/23 00:48:02;;;;;;;20.63;4.90;;;17.30;99.90;;;;;;5016392;28;20037;-70
2022/08/23 00:50:48;;;;;;;8.85;4.18;;;17.30;99.90;;;;;;5016912;28;20097;-70
2022/08/23 00:53:16;;;;;;;15.15;3.88;;;17.30;99.90;;;;;;5016725;28;20033;-70
2022/08/23 00:55:45;;;;;;;11.27;4.22;;;17.40;99.90;;;;;;5016767;28;20553;-70
2022/08/23 00:58:12;;;;;;;13.63;4.43;;;17.40;99.90;;;;;;5017072;28;20501;-70
2022/08/23 01:00:38;;;;;;;20.27;4.65;;;17.30;99.90;;;;;;5017544;28;20028;-70
2022/08/23 01:03:07;;;;;;;10.70;3.97;;;17.30;99.90;;;;;;5017171;28;20440;-70
2022/08/23 01:05:52;;;;;;;14.75;4.80;;;17.30;99.90;;;;;;5016322;28;20022;-70
2022/08/23 01:08:22;;;;;;;21.88;4.15;;;17.40;99.90;;;;;;5016559;28;20116;-70
2022/08/23 01:10:55;;;;;;;14.25;5.03;;;17.40;99.90;;;;;;5016557;28;20026;-70
2022/08/23 01:13:41;;;;;;;19.42;4.75;;;17.40;99.90;;;;;;5016588;28;20026;-70
2022/08/23 01:16:15;;;;;;;9.27;3.67;;;17.40;99.90;;;;;;5016555;28;20029;-70
2022/08/23 01:18:42;;;;;;;13.88;3.70;;;17.40;99.90;;;;;;5015909;28;20474;-70
2022/08/23 01:21:07;;;;;;;11.63;3.45;;;17.40;99.90;;;;;;5016142;28;20049;-70
2022/08/23 01:23:57;;;;;;;13.40;4.13;;;17.40;99.90;;;;;;5016095;28;20474;-70
2022/08/23 01:26:24;;;;;;;15.95;3.53;;;17.40;99.90;;;;;;5015481;28;20034;-70
2022/08/23 01:28:52;;;;;;;12.43;4.13;;;17.40;99.90;;;;;;5015615;28;20490;-70
2022/08/23 01:31:18;;;;;;;10.15;3.75;;;17.30;99.90;;;;;;5015558;28;20034;-70
2022/08/23 01:33:48;;;;;;;11.05;4.10;;;17.30;99.90;;;;;;5015954;28;20482;-70
2022/08/23 01:36:15;;;;;;;12.30;3.88;;;17.30;99.90;;;;;;5015781;28;20072;-70
2022/08/23 01:38:41;;;;;;;13.73;4.00;;;17.20;99.90;;;;;;5015693;28;20061;-70
2022/08/23 01:41:08;;;;;;;10.90;3.17;;;17.20;99.90;;;;;;5015982;28;20092;-70
2022/08/23 01:43:34;;;;;;;10.93;3.83;;;17.10;99.90;;;;;;5015477;28;20116;-70
2022/08/23 01:46:10;;;;;;;16.10;4.60;;;17.10;99.90;;;;;;5015669;28;20068;-70
2022/08/23 01:48:35;;;;;;;12.10;4.28;;;17.10;99.90;;;;;;5038126;23;20037;-69
2022/08/23 01:51:01;;;;;;;11.48;3.58;;;17.10;99.90;;;;;;5015208;28;20500;-67
2022/08/23 01:53:27;;;;;;;9.27;3.83;;;17.10;99.90;;;;;;5014278;28;20442;-68
2022/08/23 01:55:53;;;;;;;14.02;3.50;;;17.10;99.90;;;;;;5015121;28;20057;-68
2022/08/23 01:58:18;;;;;;;16.55;3.80;;;17.00;99.90;;;;;;5014695;28;20026;-68
2022/08/23 02:00:44;;;;;;;10.18;4.13;;;17.00;99.90;;;;;;5015291;28;20028;-67
2022/08/23 02:03:11;;;;;;;7.82;3.10;;;16.90;99.90;;;;;;5015111;28;20462;-68
2022/08/23 02:05:37;;;;;;;9.77;3.25;;;16.90;99.90;;;;;;5015348;28;20021;-67
2022/08/23 02:10:50;;;;;;;10.43;3.63;;;16.80;99.90;;;;;;5014874;28;20437;-67
2022/08/23 02:13:16;;;;;;;10.18;3.80;;;16.70;99.90;;;;;;5014890;28;20026;-67
2022/08/23 02:15:43;;;;;;;14.13;4.40;;;16.70;99.90;;;;;;5015165;28;20482;-68
2022/08/23 02:18:09;;;;;;;8.63;3.55;;;16.70;99.90;;;;;;5014707;28;20025;-68
2022/08/23 02:20:35;;;;;;;7.95;3.25;;;16.70;99.90;;;;;;5015021;28;20037;-68
2022/08/23 02:23:01;;;;;;;11.52;3.72;;;16.70;99.90;;;;;;5014624;28;20026;-68
2022/08/23 02:25:27;;;;;;;10.40;4.07;;;16.70;99.90;;;;;;5014920;28;20037;-67
2022/08/23 02:27:53;;;;;;;9.82;3.53;;;16.70;99.90;;;;;;5014610;28;20390;-67
2022/08/23 02:30:19;;;;;;;15.30;3.88;;;16.80;99.90;;;;;;5014749;28;20030;-67
2022/08/23 02:32:44;;;;;;;12.63;4.25;;;16.80;99.90;;;;;;5014364;28;20481;-67
2022/08/23 02:35:10;;;;;;;13.20;3.72;;;16.80;99.90;;;;;;5014706;28;20022;-68
2022/08/23 02:37:36;;;;;;;12.10;3.60;;;16.80;99.90;;;;;;5014701;28;20105;-68
2022/08/23 02:40:04;;;;;;;7.53;3.60;;;16.80;99.90;;;;;;5014328;28;20100;-67
2022/08/23 02:42:29;;;;;;;11.13;3.78;;;16.90;99.90;;;;;;5014431;28;20030;-67
2022/08/23 02:44:55;;;;;;;8.73;3.17;;;17.00;99.90;;;;;;5014333;28;20049;-68
2022/08/23 02:47:21;;;;;;;10.10;4.07;;;16.90;99.90;;;;;;5014257;28;20034;-67
2022/08/23 02:49:46;;;;;;;11.20;3.33;;;17.10;99.90;;;;;;5014015;28;20048;-67
2022/08/23 02:52:12;;;;;;;8.88;3.60;;;17.10;99.90;;;;;;5014132;28;20089;-67
2022/08/23 02:54:37;;;;;;;19.90;4.28;;;17.10;99.90;;;;;;5014154;28;20433;-66
2022/08/23 02:57:03;;;;;;;11.25;3.90;;;17.20;99.90;;;;;;5014115;28;20022;-68
2022/08/23 02:59:29;;;;;;;10.07;3.40;;;17.20;99.90;;;;;;5014567;28;20060;-68
2022/08/23 03:01:55;;;;;;;16.60;3.70;;;17.20;99.90;;;;;;5014081;28;20468;-67
2022/08/23 03:04:20;;;;;;;12.30;4.00;;;17.20;99.90;;;;;;5014023;28;20037;-67
2022/08/23 03:06:46;;;;;;;12.13;3.50;;;17.30;99.90;;;;;;5013960;28;20026;-67
2022/08/23 03:09:11;;;;;;;19.92;3.50;;;17.30;99.90;;;;;;5013378;28;20458;-67
2022/08/23 03:11:41;;;;;;;12.65;3.28;;;17.30;99.90;;;;;;5013813;28;20474;-68
2022/08/23 03:14:07;;;;;;;9.75;3.95;;;17.40;99.90;;;;;;5013793;28;20022;-67
2022/08/23 03:16:33;;;;;;;11.85;4.97;;;17.40;99.90;;;;;;5013840;28;20029;-66
2022/08/23 03:19:01;;;;;;;12.70;3.33;;;17.40;99.90;;;;;;5014318;28;20370;-68
2022/08/23 03:21:26;;;;;;;10.25;3.78;;;17.40;99.90;;;;;;5013819;28;20069;-68
2022/08/23 03:23:52;;;;;;;11.02;4.07;;;17.40;99.90;;;;;;5013738;28;20532;-68
2022/08/23 03:26:18;;;;;;;20.67;3.58;;;17.40;99.90;;;;;;5014266;28;20021;-67
2022/08/23 03:28:44;;;;;;;6.05;3.33;;;17.40;99.90;;;;;;5013647;28;20026;-67
2022/08/23 03:31:11;;;;;;;13.43;3.53;;;17.40;99.90;;;;;;5013525;28;20037;-67
2022/08/23 03:33:37;;;;;;;9.80;3.58;;;17.40;99.90;;;;;;5013634;28;20026;-67
2022/08/23 03:36:06;;;;;;;11.60;3.78;;;17.40;99.90;;;;;;5014407;28;20069;-67
2022/08/23 03:38:32;;;;;;;11.65;4.18;;;17.40;99.90;;;;;;5013802;28;20033;-67
2022/08/23 03:41:00;;;;;;;11.10;3.97;;;17.40;99.90;;;;;;5013566;28;20037;-67
2022/08/23 03:43:26;;;;;;;19.27;3.35;;;17.40;99.90;;;;;;5013799;28;20125;-67
2022/08/23 03:45:52;;;;;;;9.80;3.38;;;17.40;99.90;;;;;;5013576;28;20503;-67
2022/08/23 03:48:18;;;;;;;14.02;4.40;;;17.40;99.90;;;;;;5013536;28;20037;-68
2022/08/23 03:50:44;;;;;;;9.32;3.85;;;17.30;99.90;;;;;;5013950;28;20026;-67
2022/08/23 03:53:10;;;;;;;7.15;3.03;;;17.40;99.90;;;;;;5013486;28;20052;-67
2022/08/23 03:55:36;;;;;;;10.63;3.67;;;17.40;99.90;;;;;;5014004;28;20450;-67
2022/08/23 03:58:01;;;;;;;10.20;3.65;;;17.40;99.90;;;;;;5013600;28;20033;-67
2022/08/23 04:00:27;;;;;;;8.85;3.67;;;17.30;99.90;;;;;;5013349;28;20030;-67
2022/08/23 04:02:53;;;;;;;10.60;4.20;;;17.40;99.90;;;;;;5010545;28;20022;-68
2022/08/23 04:05:18;;;;;;;8.52;3.80;;;17.40;99.90;;;;;;4998631;28;20041;-67
2022/08/23 04:07:44;;;;;;;22.73;4.38;;;17.30;99.90;;;;;;4993964;28;20030;-67
2022/08/23 04:10:13;;;;;;;12.82;3.55;;;17.30;99.90;;;;;;4993606;28;20022;-67
2022/08/23 04:12:39;;;;;;;11.73;3.90;;;17.30;99.90;;;;;;4993854;28;20394;-67
2022/08/23 04:15:05;;;;;;;14.48;3.65;;;17.40;99.90;;;;;;4993654;28;20018;-67
2022/08/23 04:17:31;;;;;;;6.88;3.17;;;17.40;99.90;;;;;;4993861;28;20030;-67
2022/08/23 04:19:57;;;;;;;11.00;3.83;;;17.40;99.90;;;;;;4993518;28;20033;-67
2022/08/23 04:22:23;;;;;;;4.82;2.85;;;17.40;99.90;;;;;;4997255;28;20022;-67
2022/08/23 04:24:49;;;;;;;19.50;3.70;;;17.40;99.90;;;;;;4997616;28;20069;-68
2022/08/23 04:27:15;;;;;;;14.20;4.00;;;17.40;99.90;;;;;;4997538;28;20034;-68
2022/08/23 04:29:40;;;;;;;10.18;2.97;;;17.40;99.90;;;;;;4997110;28;20066;-67
2022/08/23 04:32:08;;;;;;;10.45;3.70;;;17.50;99.90;;;;;;4997135;28;20037;-67
2022/08/23 04:34:35;;;;;;;10.27;3.90;;;17.50;99.90;;;;;;4997168;28;20023;-68
2022/08/23 04:37:01;;;;;;;11.02;3.67;;;17.50;99.90;;;;;;4997346;28;20026;-68
2022/08/23 04:39:27;;;;;;;10.20;4.68;;;17.50;99.90;;;;;;4997084;28;20374;-68
2022/08/23 04:44:37;;;;;;;11.68;4.15;;;17.50;99.90;;;;;;4997324;28;20089;-69
2022/08/23 04:47:03;;;;;;;11.00;3.92;;;17.50;99.90;;;;;;5008617;28;20029;-67
2022/08/23 04:49:28;;;;;;;18.98;3.70;;;17.60;99.90;;;;;;5016391;28;20548;-67
2022/08/23 04:51:54;;;;;;;6.40;3.45;;;17.60;99.90;;;;;;5016361;28;20057;-67
2022/08/23 04:54:21;;;;;;;8.68;3.67;;;17.60;99.90;;;;;;5016274;28;20048;-68
2022/08/23 04:56:47;;;;;;;13.93;4.32;;;17.60;99.90;;;;;;5016331;28;20021;-68
2022/08/23 04:59:13;;;;;;;8.82;3.47;;;17.70;99.90;;;;;;5016500;28;20097;-68
2022/08/23 05:01:39;;;;;;;8.13;3.70;;;17.70;99.90;;;;;;5016514;28;20113;-68
2022/08/23 05:04:04;;;;;;;13.07;3.67;;;17.60;99.90;;;;;;5016143;28;20022;-67
2022/08/23 05:06:30;;;;;;;10.68;3.20;;;17.70;99.90;;;;;;5016133;28;20140;-67
2022/08/23 05:08:57;;;;;;;12.02;3.38;;;17.60;99.90;;;;;;5016067;28;20080;-67
2022/08/23 05:11:23;;;;;;;9.02;3.65;;;17.60;99.90;;;;;;5016172;28;20109;-67
2022/08/23 05:13:49;;;;;;;9.80;3.72;;;17.60;99.90;;;;;;5016308;28;20076;-67
2022/08/23 05:16:15;;;;;;;13.80;4.40;;;17.60;99.90;;;;;;5016010;28;20462;-68
2022/08/23 05:18:40;;;;;;;10.95;3.83;;;17.50;99.90;;;;;;5015909;28;20033;-67
2022/08/23 05:21:06;;;;;;;11.63;3.80;;;17.60;99.90;;;;;;5016172;28;20022;-67
2022/08/23 05:23:32;;;;;;;10.10;3.40;;;17.60;99.90;;;;;;5016365;28;20080;-67
2022/08/23 05:25:58;;;;;;;10.32;3.75;;;17.60;99.90;;;;;;5015947;28;20529;-70
2022/08/23 05:28:26;;;;;;;9.48;3.85;;;17.60;99.90;;;;;;5016203;28;20018;-68
2022/08/23 05:31:02;;;;;;;13.02;3.65;;;17.60;99.90;;;;;;5015611;28;20021;-68
2022/08/23 05:33:29;;;;;;;10.60;4.50;;;17.70;99.90;;;;;;5014760;28;20025;-68
2022/08/23 05:35:55;;;;;;;8.75;4.40;;;17.80;99.90;;;;;;5015918;28;20057;-68
2022/08/23 05:38:21;;;;;;;9.50;3.33;;;17.90;99.90;;;;;;5015497;28;20084;-68
2022/08/23 05:40:49;;;;;;;12.07;3.92;;;17.90;99.90;;;;;;5015489;28;20029;-67
2022/08/23 05:43:15;;;;;;;11.18;3.33;;;18.00;99.90;;;;;;5015499;28;20022;-67
2022/08/23 05:45:40;;;;;;;9.70;3.22;;;18.00;99.90;;;;;;5015692;28;20060;-67
2022/08/23 05:48:06;;;;;;;9.07;3.95;;;18.10;99.90;;;;;;5015150;28;20026;-67
2022/08/23 05:50:31;;;;;;;12.32;4.07;;;18.10;99.90;;;;;;5015154;28;20026;-67
2022/08/23 05:52:57;;;;;;;10.82;3.58;;;18.20;99.90;;;;;;5015432;28;20037;-67
2022/08/23 05:55:23;;;;;;;7.68;3.20;;;18.30;99.90;;;;;;5015218;28;20024;-68
2022/08/23 05:57:48;;;;;;;7.75;3.85;;;18.30;99.90;;;;;;5014905;28;20026;-68
2022/08/23 06:00:14;;;;;;;7.72;3.47;;;18.30;99.90;;;;;;5015092;28;20477;-68
2022/08/23 06:02:41;;;;;;;9.68;3.25;;;18.40;99.90;;;;;;5015202;28;20022;-67
2022/08/23 06:05:08;;;;;;;18.75;3.78;;;18.40;99.90;;;;;;5015289;28;20057;-67
2022/08/23 06:07:34;;;;;;;11.23;3.85;;;18.50;99.90;;;;;;5015017;28;20033;-67
2022/08/23 06:10:01;;;;;;;10.70;2.80;;;18.50;99.90;;;;;;5014997;28;20034;-68
2022/08/23 06:12:27;;;;;;;10.57;4.13;;;18.50;99.90;;;;;;5013459;28;20095;-68
2022/08/23 06:14:52;;;;;;;10.40;3.90;;;18.60;99.90;;;;;;5014930;28;20033;-69
2022/08/23 06:17:18;;;;;;;11.07;3.88;;;18.60;99.90;;;;;;5014810;28;20026;-69
2022/08/23 06:19:43;;;;;;;11.65;2.65;;;18.70;99.90;;;;;;5014673;28;20096;-68
2022/08/23 06:22:09;;;;;;;8.02;3.40;;;18.70;99.90;;;;;;5014710;28;20470;-68
2022/08/23 06:24:35;;;;;;;10.07;3.53;;;18.70;99.90;;;;;;5014581;28;20128;-68
2022/08/23 06:27:01;;;;;;;11.52;3.58;;;18.70;99.90;;;;;;5014697;28;20041;-68
2022/08/23 06:29:27;;;;;;;13.50;3.72;;;18.70;99.90;;;;;;5014641;28;20034;-68
2022/08/23 06:31:53;;;;;;;9.48;2.80;;;18.80;99.90;;;;;;5014513;28;20025;-67
2022/08/23 06:34:36;;;;;;;11.18;3.10;;;18.80;99.90;;;;;;5014803;28;20500;-67
2022/08/23 06:37:13;;;;;;;12.52;3.22;;;19.00;99.90;;;;;;5014765;28;20026;-67
2022/08/23 06:39:39;;;;;;;9.20;3.63;;;19.10;99.90;;;;;;5014352;28;20026;-67
2022/08/23 06:42:06;;;;;;;6.05;2.83;;;19.30;99.90;;;;;;5014578;28;20034;-67
2022/08/23 06:44:34;;;;;;;7.47;3.00;;;19.50;99.90;;;;;;5014220;28;20033;-68
2022/08/23 06:47:00;;;;;;;6.80;2.92;;;19.90;99.90;;;;;;5014311;28;20505;-68
2022/08/23 06:49:26;;;;;;;8.18;3.03;;;20.20;99.90;;;;;;5014329;28;20037;-68
2022/08/23 06:51:55;;;;;;;9.45;3.28;;;20.50;99.90;;;;;;5014184;28;20025;-68
2022/08/23 06:54:23;;;;;;;11.27;3.67;;;20.70;99.90;;;;;;5014610;28;20026;-67
2022/08/23 06:56:49;;;;;;;10.77;3.40;;;20.90;99.90;;;;;;5014150;28;20026;-67
2022/08/23 06:59:16;;;;;;;11.18;2.92;;;20.90;99.90;;;;;;5013840;28;20105;-66
2022/08/23 07:01:46;;;;;;;8.88;3.05;;;20.90;99.90;;;;;;5014103;28;20470;-66
2022/08/23 07:04:13;;;;;;;7.30;3.25;;;20.90;99.90;;;;;;5013924;28;20022;-66
2022/08/23 07:06:39;;;;;;;12.23;3.08;;;20.90;99.90;;;;;;5013893;28;20029;-67
2022/08/23 07:09:05;;;;;;;10.57;3.13;;;21.00;99.90;;;;;;5013863;28;20017;-68
2022/08/23 07:11:31;;;;;;;10.27;2.88;;;21.10;99.90;;;;;;5013870;28;20026;-66
2022/08/23 07:14:00;;;;;;;12.15;3.60;;;21.30;99.90;;;;;;5013748;28;20578;-67
2022/08/23 07:16:33;;;;;;;8.90;3.28;;;21.30;99.90;;;;;;5014121;28;20458;-67
2022/08/23 07:18:58;;;;;;;6.55;2.63;;;21.50;99.90;;;;;;5014115;28;20018;-67
2022/08/23 07:21:24;;;;;;;11.60;3.35;;;21.60;99.90;;;;;;5013751;28;20080;-67
2022/08/23 07:23:50;;;;;;;6.15;2.85;;;21.70;99.90;;;;;;5013776;28;20084;-68
2022/08/23 07:26:16;;;;;;;9.63;2.60;;;21.80;99.90;;;;;;5013955;28;20049;-68
2022/08/23 07:28:42;;;;;;;15.20;3.40;;;21.90;99.90;;;;;;5013609;28;20466;-68
2022/08/23 07:31:21;;;;;;;11.63;2.42;;;21.90;99.90;;;;;;5013864;28;20037;-67
2022/08/23 07:33:47;;;;;;;7.20;2.75;;;22.00;99.90;;;;;;5013991;28;20025;-67
2022/08/23 07:36:15;;;;;;;10.43;2.63;;;22.10;99.90;;;;;;5013905;28;20018;-68
2022/08/23 07:38:45;;;;;;;8.10;2.67;;;22.10;99.90;;;;;;5013538;28;20026;-68
2022/08/23 07:41:11;;;;;;;5.82;2.13;;;22.30;99.90;;;;;;5013890;28;20044;-68
2022/08/23 07:43:38;;;;;;;10.15;2.60;;;22.20;99.90;;;;;;5013396;28;20038;-68
2022/08/23 07:46:04;;;;;;;9.27;2.97;;;22.20;99.90;;;;;;5013477;28;20032;-68
2022/08/23 07:51:00;;;;;;;5.70;2.63;;;22.20;99.90;;;;;;5012315;28;20414;-69
2022/08/23 07:53:26;;;;;;;5.35;2.35;;;22.10;99.90;;;;;;5013667;28;20030;-69
2022/08/23 07:55:53;;;;;;;7.00;2.90;;;22.20;99.90;;;;;;5015317;28;20191;-69
2022/08/23 07:58:20;;;;;;;9.07;2.88;;;22.30;99.90;;;;;;5017647;28;20050;-69
2022/08/23 08:00:46;;;;;;;9.68;2.35;;;22.30;99.90;;;;;;5017554;28;20030;-69
2022/08/23 08:03:13;;;;;;;14.35;2.65;;;22.40;99.90;;;;;;5017769;28;20029;-69
2022/08/23 08:05:39;;;;;;;13.65;2.78;;;22.50;99.90;;;;;;5017286;28;20030;-69
2022/08/23 08:08:07;;;;;;;7.90;2.75;;;22.70;99.90;;;;;;5017655;28;20033;-69
2022/08/23 08:10:35;;;;;;;10.13;2.95;;;22.80;99.90;;;;;;5017226;28;20521;-69
2022/08/23 08:13:01;;;;;;;8.43;2.50;;;23.00;99.90;;;;;;5017238;28;20030;-69
2022/08/23 08:15:26;;;;;;;15.60;2.38;;;23.40;99.90;;;;;;5017181;28;20018;-69
2022/08/23 08:17:52;;;;;;;5.68;2.38;;;24.00;99.90;;;;;;5016938;28;20497;-69
2022/08/23 08:20:20;;;;;;;7.72;1.85;;;24.10;99.90;;;;;;5017326;28;20030;-69
2022/08/23 08:22:46;;;;;;;8.75;2.60;;;24.20;99.90;;;;;;5017141;28;20492;-69
2022/08/23 08:25:12;;;;;;;6.78;2.70;;;24.20;99.90;;;;;;5017277;28;20038;-69
2022/08/23 08:27:38;;;;;;;8.70;2.75;;;24.20;99.90;;;;;;5016934;28;20026;-69
2022/08/23 08:30:05;;;;;;;9.27;4.07;;;24.30;99.90;;;;;;5017009;28;20104;-69
2022/08/23 08:32:31;;;;;;;8.55;2.58;;;24.00;99.90;;;;;;5016747;28;20026;-69
2022/08/23 08:34:56;;;;;;;9.77;2.58;;;24.00;99.90;;;;;;5017525;28;20022;-69
2022/08/23 08:37:22;;;;;;;10.07;2.03;;;23.90;99.90;;;;;;5017100;28;20035;-69
2022/08/23 08:39:47;;;;;;;5.55;2.20;;;23.80;99.90;;;;;;5016777;28;20066;-69
2022/08/23 08:42:37;;;;;;;7.40;2.70;;;23.80;99.90;;;;;;5016404;28;20048;-69
2022/08/23 08:45:19;;;;;;;5.28;2.35;;;23.80;99.90;;;;;;5016976;28;20025;-69
2022/08/23 08:48:07;;;;;;;5.13;2.50;;;23.90;99.90;;;;;;5016558;28;20018;-69
2022/08/23 08:50:43;;;;;;;10.25;2.20;;;24.10;99.90;;;;;;5016136;28;20076;-69
2022/08/23 08:53:17;;;;;;;11.13;2.80;;;24.30;99.90;;;;;;5016451;28;20026;-69
2022/08/23 08:55:54;;;;;;;10.77;2.10;;;24.40;99.90;;;;;;5016530;28;20532;-69
2022/08/23 08:58:49;;;;;;;13.15;2.55;;;24.40;99.90;;;;;;5016669;28;20501;-69
2022/08/23 09:01:17;;;;;;;9.32;2.58;;;24.40;99.90;;;;;;5015162;28;20034;-69
2022/08/23 09:03:42;;;;;;;12.23;2.78;;;24.40;99.90;;;;;;5016338;28;20026;-69
2022/08/23 09:06:31;;;;;;;5.15;2.20;;;24.50;99.90;;;;;;5016212;28;20021;-69
2022/08/23 09:09:08;;;;;;;10.70;2.55;;;24.60;99.90;;;;;;5015778;28;20037;-69
2022/08/23 09:11:58;;;;;;;3.45;1.83;;;24.90;99.90;;;;;;5016385;28;20053;-68
2022/08/23 09:14:37;;;;;;;11.55;2.65;;;25.20;99.90;;;;;;5016226;28;20026;-68
2022/08/23 09:17:17;;;;;;;13.02;2.35;;;25.20;99.90;;;;;;5015992;28;20549;-68
2022/08/23 09:19:45;;;;;;;4.47;2.03;;;25.40;99.90;;;;;;5014751;28;20149;-69
2022/08/23 09:22:15;;;;;;;11.98;2.05;;;25.70;99.90;;;;;;5015988;28;20036;-69
2022/08/23 09:24:41;;;;;;;11.75;2.22;;;25.90;99.90;;;;;;5016163;28;20030;-69
2022/08/23 09:27:10;;;;;;;8.30;2.22;;;26.10;99.90;;;;;;5015800;28;20040;-69
2022/08/23 09:29:39;;;;;;;7.97;2.22;;;26.30;99.90;;;;;;5015911;28;20478;-69
2022/08/23 09:32:24;;;;;;;13.13;1.98;;;26.60;99.90;;;;;;5015601;28;20121;-69
2022/08/23 09:34:49;;;;;;;6.50;1.83;;;26.60;99.90;;;;;;5015726;28;20080;-69
2022/08/23 09:37:21;;;;;;;9.70;1.90;;;26.60;99.90;;;;;;5014350;28;20413;-69
2022/08/23 09:40:11;;;;;;;6.00;2.22;;;26.30;99.90;;;;;;5015904;28;20022;-69
2022/08/23 09:42:38;;;;;;;6.10;1.85;;;26.30;99.90;;;;;;5015578;28;20030;-69
2022/08/23 09:45:23;;;;;;;5.68;1.98;;;26.30;99.90;;;;;;5015485;28;20065;-68
2022/08/23 09:47:49;;;;;;;5.40;2.10;;;26.60;99.90;;;;;;5015921;28;20076;-69
2022/08/23 09:50:35;;;;;;;5.25;2.13;;;26.70;99.90;;;;;;5015259;28;20042;-69
2022/08/23 09:53:10;;;;;;;7.60;2.03;;;27.00;99.90;;;;;;5015448;28;20030;-69
2022/08/23 09:55:51;;;;;;;11.95;1.73;;;27.30;99.90;;;;;;5015726;28;20030;-69
2022/08/23 09:58:51;;;;;;;7.35;1.90;;;27.60;99.90;;;;;;5015692;28;20022;-70
2022/08/23 10:01:25;;;;;;;4.75;1.67;;;27.60;99.90;;;;;;5012962;28;20026;-69
2022/08/23 10:04:35;;;;;;;9.10;1.83;;;27.80;99.90;;;;;;5015851;28;20026;-70
2022/08/23 10:07:32;;;;;;;5.25;1.85;;;27.70;99.90;;;;;;5007263;28;20058;-69
2022/08/23 10:10:27;;;;;;;4.25;2.00;;;27.70;99.90;;;;;;5015122;28;20037;-69
2022/08/23 10:12:55;;;;;;;4.00;1.45;;;27.90;99.90;;;;;;5014728;28;20034;-69
2022/08/23 10:15:48;;;;;;;9.00;1.83;;;28.00;99.90;;;;;;5014717;28;20022;-69
2022/08/23 10:18:37;;;;;;;5.15;1.77;;;28.10;99.90;;;;;;5014131;28;20456;-69
2022/08/23 10:21:39;;;;;;;11.55;1.83;;;28.30;99.90;;;;;;5015172;28;20109;-69
2022/08/23 10:24:22;;;;;;;5.57;1.77;;;28.50;99.90;;;;;;5014962;28;20389;-69
2022/08/23 10:29:35;;;;;;;5.72;1.67;;;28.70;99.90;;;;;;5015074;28;20484;-69
2022/08/23 10:30:18;;;;;;;10.98;1.73;;;28.50;99.90;;;;;;5014143;28;20017;-69
2022/08/23 10:32:55;;;;;;;4.03;1.70;;;28.20;99.90;;;;;;5014162;28;20042;-69
2022/08/23 10:35:26;;;;;;;10.52;1.80;;;28.30;99.90;;;;;;5014883;28;20022;-69
2022/08/23 10:37:54;;;;;;;7.20;1.73;;;28.60;99.90;;;;;;5014933;28;20030;-69
2022/08/23 10:40:39;;;;;;;4.20;1.85;;;29.00;99.90;;;;;;5014868;28;20036;-69
2022/08/23 10:43:04;;;;;;;6.57;1.85;;;29.30;99.90;;;;;;5013310;28;20165;-69
2022/08/23 10:45:38;;;;;;;6.85;1.58;;;29.40;99.90;;;;;;5014296;28;20440;-69
2022/08/23 10:48:20;;;;;;;23.60;1.90;;;29.40;99.90;;;;;;5014934;28;20029;-69
2022/08/23 10:51:06;;;;;;;7.25;2.42;;;29.50;99.90;;;;;;5014117;28;20026;-69
2022/08/23 10:53:55;;;;;;;5.00;2.20;;;29.50;99.90;;;;;;5013932;28;20490;-69
2022/08/23 10:56:22;;;;;;;7.97;1.92;;;29.60;99.90;;;;;;5014578;28;20033;-69
2022/08/23 10:58:53;;;;;;;7.90;1.80;;;29.80;99.90;;;;;;5014183;28;20036;-69
2022/08/23 11:01:28;;;;;;;9.95;1.70;;;29.80;99.90;;;;;;5014456;28;20100;-69
2022/08/23 11:04:01;;;;;;;7.32;2.60;;;29.90;99.90;;;;;;5014456;28;20026;-68
2022/08/23 11:06:43;;;;;;;10.30;1.90;;;29.80;99.90;;;;;;5013958;28;20028;-68
2022/08/23 11:09:29;;;;;;;5.00;2.03;;;29.90;99.90;;;;;;5014131;28;20026;-69
2022/08/23 11:12:20;;;;;;;8.23;2.25;;;30.10;99.90;;;;;;5013974;28;20033;-69
2022/08/23 11:15:01;;;;;;;8.05;1.83;;;30.20;99.90;;;;;;4994810;28;20022;-69
2022/08/23 11:17:32;;;;;;;19.48;2.28;;;30.40;99.90;;;;;;4994715;28;20022;-69
2022/08/23 11:20:02;;;;;;;5.38;2.10;;;29.80;99.90;;;;;;4994757;28;20034;-69
2022/08/23 11:23:06;;;;;;;8.75;1.73;;;29.80;99.90;;;;;;4994697;28;20505;-69
2022/08/23 11:25:32;;;;;;;8.75;2.08;;;30.10;99.90;;;;;;4997506;28;20037;-70
2022/08/23 11:28:22;;;;;;;4.68;2.47;;;30.40;99.90;;;;;;5014317;28;20018;-69
2022/08/23 11:31:12;;;;;;;5.47;1.73;;;30.40;99.90;;;;;;5013204;28;20160;-69
2022/08/23 11:33:58;;;;;;;6.07;2.20;;;30.40;99.90;;;;;;4993948;28;20046;-69
2022/08/23 11:36:26;;;;;;;5.70;1.77;;;30.50;99.90;;;;;;5014284;28;20021;-69
2022/08/23 11:38:51;;;;;;;5.18;1.52;;;30.30;99.90;;;;;;5013811;28;20494;-70
2022/08/23 11:41:24;;;;;;;8.73;1.90;;;30.30;99.90;;;;;;5013758;28;20101;-69
2022/08/23 11:43:56;;;;;;;4.75;1.35;;;30.20;99.90;;;;;;5014362;28;20025;-69
2022/08/23 11:46:27;;;;;;;10.27;1.52;;;30.30;99.90;;;;;;5013945;28;20030;-68
2022/08/23 11:49:01;;;;;;;4.25;1.92;;;30.40;99.90;;;;;;5013333;28;20066;-69
2022/08/23 11:51:57;;;;;;;7.47;1.80;;;30.70;99.90;;;;;;5013865;28;20037;-69
2022/08/23 11:54:23;;;;;;;5.05;1.80;;;31.10;99.90;;;;;;5013748;28;20028;-69
2022/08/23 11:57:26;;;;;;;14.35;2.08;;;31.30;99.90;;;;;;5013938;28;20025;-69
2022/08/23 12:00:10;;;;;;;13.03;1.63;;;31.80;99.90;;;;;;5013422;28;20018;-69
2022/08/23 12:02:46;;;;;;;4.53;1.63;;;32.00;98.70;;;;;;5013549;28;20428;-68
2022/08/23 12:05:16;;;;;;;4.68;1.52;;;32.10;97.60;;;;;;5013557;28;20030;-68
2022/08/23 12:08:01;;;;;;;10.48;1.50;;;32.50;98.50;;;;;;5013421;28;20029;-69
2022/08/23 12:10:41;;;;;;;8.23;1.83;;;32.70;96.80;;;;;;5013548;28;20535;-69
2022/08/23 12:13:19;;;;;;;8.10;1.60;;;33.00;97.60;;;;;;5013419;28;20037;-69
2022/08/23 12:16:25;;;;;;;9.85;1.27;;;33.60;96.90;;;;;;5013367;28;20106;-69
2022/08/23 12:18:53;;;;;;;4.22;1.42;;;33.60;94.50;;;;;;5012180;28;20022;-69
2022/08/23 12:21:37;;;;;;;9.80;1.83;;;33.60;93.40;;;;;;5013734;28;20492;-68
2022/08/23 12:24:15;;;;;;;3.75;1.23;;;33.60;93.10;;;;;;5014576;28;20025;-69
2022/08/23 12:26:41;;;;;;;3.95;1.70;;;34.00;93.40;;;;;;5014176;28;20093;-69
2022/08/23 12:29:22;;;;;;;4.68;1.27;;;34.40;92.40;;;;;;5011862;28;20118;-69
2022/08/23 12:32:16;;;;;;;4.15;1.38;;;34.30;91.40;;;;;;5002219;28;20030;-69
2022/08/23 12:35:13;;;;;;;7.70;1.92;;;34.80;90.50;;;;;;5013500;28;20018;-67
2022/08/23 12:37:51;;;;;;;5.05;1.50;;;34.90;90.80;;;;;;5012490;28;20030;-66
2022/08/23 12:40:32;;;;;;;7.32;1.50;;;34.60;87.90;;;;;;5013028;28;20521;-66
2022/08/23 12:43:21;;;;;;;5.93;2.22;;;34.50;87.30;;;;;;5016090;28;20449;-66
2022/08/23 12:45:54;;;;;;;5.22;1.60;;;34.80;86.80;;;;;;5017002;28;20026;-66
2022/08/23 12:48:22;;;;;;;3.33;1.17;;;35.10;86.90;;;;;;5016693;28;20034;-66
2022/08/23 12:50:55;;;;;;;3.78;1.20;;;35.20;86.10;;;;;;5016330;28;20040;-67
2022/08/23 12:53:32;;;;;;;5.15;1.35;;;35.40;84.20;;;;;;5016520;28;20041;-67
2022/08/23 12:56:02;;;;;;;5.97;1.13;;;35.60;83.70;;;;;;5016670;28;20034;-66
2022/08/23 12:58:31;;;;;;;5.10;1.10;;;35.80;81.70;;;;;;5016981;28;20033;-67
2022/08/23 13:01:04;;;;;;;5.55;1.20;;;35.90;80.70;;;;;;5016553;28;20021;-67
2022/08/23 13:03:40;;;;;;;7.68;1.30;;;35.80;80.70;;;;;;5017270;28;20402;-66
2022/08/23 13:06:10;;;;;;;1.98;0.80;;;35.90;80.80;;;;;;5016730;28;20465;-66
2022/08/23 13:08:47;;;;;;;3.25;1.20;;;35.90;79.00;;;;;;5016436;28;20030;-67
2022/08/23 13:11:16;;;;;;;3.13;1.10;;;36.00;80.40;;;;;;5016518;28;20140;-67
2022/08/23 13:13:43;;;;;;;6.93;1.60;;;36.00;76.90;;;;;;5014981;28;20018;-67
2022/08/23 13:16:34;;;;;;;2.67;1.30;;;35.90;77.60;;;;;;5016234;28;20033;-69